Hlavní strana
METAR-TAF:

METAR-TAF

Letiště :

Funchal, Madeira, Portugalsko

Letiště Madeira

zeměpisná šířka: 32-41-52N, zeměpisná délka: 016-46-28W, výška: 59 m

Aktuální stav počasí

Zpráva byla vytvořena před 13 minutami, v 21:30 UTC
Severní vítr 12 kt
Teplota 16°C
Vlhkost vzduchu 72%
Tlak 1030 hPa
Viditelnost 10 km a více
Oblačno až skoro zataženo ve výšce 1600 ft

METAR: LPMA 222130Z 01012KT 9999 BKN016 16/11 Q1030

Čas: 21:43 (21:43 UTC)

Předpověď počasí

Zpráva byla vytvořena před 4 hodinami a 43 minutami, v 17:00 UTC
Předpověď platná od 22 v 18 UTC do 23 v 18 UTC
Severoseverovýchodní vítr 13 kt
Viditelnost 10 km a více
Polojasno ve výšce 1600 ft
Změna
od 22 v 18 UTC do 22 v 21 UTC
Polojasno ve výšce 1500 ft
Oblačno až skoro zataženo ve výšce 3000 ft

TAF: LPMA 221700Z 2218/2318 03013KT 9999 SCT016 BECMG 2218/2221 SCT015 BKN030

Stav a předpovědi počasí z více než 4 000 letišť (zprávy METAR a TAF).

Červené a žluté tečky na mapě představují dostupné meteorologické stanice.

Když kurzor umístíte na tečku, zobrazí se název stanice.

Pak kliknutím zobrazíte stav a předpověď počasí.

Chcete-li změnit mapu, kliknutím na zelené tlačítko se znaménkem +mapu přiblížíte, kliknutím na zelené tlačítko se znaménkem – mapu oddálíte a kliknutím na zelené šipky přejdete na sousední mapy.


METAR-TAF: